Hampstead, MD (21074)

8:44 AM EDT on April 25, 2015 (GMT -0400)
North Carroll Farms | | Change Station
CLOSE
Current Station
Personal Weather Station
Location: Hampstead, MD
Elevation: 845 ft
Nearby Weather Stations

Elev 845 ft 39.63 °N, 76.85 °W | Updated 4 seconds ago

Overcast
Overcast
39.6 °F
Feels Like 40 °F
N
0.0
Wind Variable Wind from NNW
Gusts 2.0 mph

Today
High -- | Low -- °F
--% Chance of Precip.
Yesterday
High -- | Low -- °F
Precip. -- in
6:16 AM 7:55 PM
Waxing Crescent, 45% visible
Pressure 29.98 in
Visibility 10.0 miles
Clouds Scattered Clouds 7000 ft
Windchill 40 °F
Dew Point 18 °F
Humidity 41%
Rainfall 0.00 in
Snow Depth Not available.
UV 2 out of 12
Pollen 10.90 out of 12
Air Quality Not available.
Flu Activity Regional
METAR KDMW 251225Z AUTO 00000KT 10SM SCT070 05/M08 A2998 RMK AO2

More Conditions Fewer Conditions

Pressure 29.98 in
Visibility 10.0 miles
Clouds Scattered Clouds 7000 ft
Windchill 40 °F
Dew Point 18 °F
Humidity 41%
Rainfall 0.00 in
Snow Depth Not available.
UV 2 out of 12
Pollen 10.90 out of 12
Air Quality Not available.
Flu Activity Regional
METAR KDMW 251225Z AUTO 00000KT 10SM SCT070 05/M08 A2998 RMK AO2

More Conditions Fewer Conditions

10-Day Weather Forecast

Almanac

Astronomy

Apr. 25, 2015 Rise Set
Actual Time
Civil Twilight
Nautical Twilight
Astronomical Twilight
Moon
Length of Visible Light
Length of Day
Tomorrow will be .
, % of the Moon is Illuminated

Today's Extremes

State Highs State Lows

Community

WunderPhotos

Upload Photos

1,816,649 photos uploaded!

WunderBlogs® & News

Nearby

Air Quality

  Air Quality AQ Index Pollutant
Not available.

Snow Depth

Station Depth Elevation

Earthquake Activity

City Distance Mag. Time & Date
Minimum magnitude displayed is 2.5.

Coastal Water Temperatures

Place Temperature

Stations

Nearby Weather Stations

Station Location Temp. Windchill Dew Point Humidity Wind Precip. Elev Updated Type